createdAt,value
2017-10-24T00:04:40.077Z,9.18
2017-10-24T00:07:08.942Z,9.63
2017-10-24T00:09:37.783Z,9.65
2017-10-24T00:12:06.646Z,9.65
2017-10-24T00:14:36.510Z,10.73
2017-10-24T00:17:05.404Z,9.15
2017-10-24T00:19:34.266Z,8.63
2017-10-24T00:22:03.110Z,9.60
2017-10-24T00:24:32.772Z,11.52
2017-10-24T00:27:01.635Z,9.27
2017-10-24T00:29:30.518Z,10.30
2017-10-24T00:31:59.409Z,9.38
2017-10-24T00:34:29.221Z,10.45
2017-10-24T00:37:00.674Z,9.80
2017-10-24T00:39:29.578Z,10.43
2017-10-24T00:41:58.465Z,10.13
2017-10-24T00:44:27.377Z,11.25
2017-10-24T00:46:56.249Z,10.02
2017-10-24T00:49:25.122Z,11.45
2017-10-24T00:51:55.686Z,10.52
2017-10-24T00:54:24.544Z,10.68
2017-10-24T00:56:53.859Z,11.38
2017-10-24T00:59:22.021Z,10.40
2017-10-24T01:01:51.317Z,9.15
2017-10-24T01:04:20.171Z,9.02
2017-10-24T01:06:49.046Z,9.38
2017-10-24T01:09:17.899Z,9.90
2017-10-24T01:11:47.558Z,12.15
2017-10-24T01:14:16.415Z,12.32
2017-10-24T01:16:45.279Z,11.12
2017-10-24T01:19:14.562Z,12.45
2017-10-24T01:21:43.252Z,12.18
2017-10-24T01:24:12.600Z,12.37
2017-10-24T01:26:40.950Z,11.88
2017-10-24T01:29:10.229Z,13.07
2017-10-24T01:31:38.894Z,11.70
2017-10-24T01:34:07.772Z,13.15
2017-10-24T01:36:35.961Z,12.10
2017-10-24T01:39:05.231Z,15.68
2017-10-24T01:41:33.419Z,12.40
2017-10-24T01:44:01.653Z,13.65
2017-10-24T01:46:29.823Z,14.25
2017-10-24T01:48:58.515Z,14.15
2017-10-24T01:51:27.809Z,13.38
2017-10-24T01:53:56.985Z,11.80
2017-10-24T01:56:25.495Z,13.38
2017-10-24T01:58:54.770Z,14.50
2017-10-24T02:01:22.919Z,13.95
2017-10-24T02:03:51.439Z,14.45
2017-10-24T02:06:20.496Z,13.50
2017-10-24T02:08:48.662Z,13.70
2017-10-24T02:11:17.174Z,12.68
2017-10-24T02:13:45.728Z,15.07
2017-10-24T02:16:13.917Z,14.82
2017-10-24T02:18:42.113Z,13.62
2017-10-24T02:21:10.626Z,12.52
2017-10-24T02:23:40.260Z,14.13
2017-10-24T02:26:09.114Z,14.90
2017-10-24T02:28:37.971Z,13.10
2017-10-24T02:31:06.836Z,14.68
2017-10-24T02:33:36.279Z,14.57
2017-10-24T02:36:05.143Z,15.77
2017-10-24T02:38:34.005Z,15.20
2017-10-24T02:41:03.628Z,17.50
2017-10-24T02:43:32.495Z,17.52
2017-10-24T02:46:02.125Z,16.37
2017-10-24T02:48:30.991Z,15.82
2017-10-24T02:50:59.963Z,14.95
2017-10-24T02:53:28.867Z,15.50
2017-10-24T02:55:59.027Z,16.12
2017-10-24T02:58:29.822Z,15.95
2017-10-24T03:00:58.684Z,16.83
2017-10-24T03:03:27.537Z,15.80
2017-10-24T03:05:57.647Z,15.57
2017-10-24T03:08:27.279Z,17.00
2017-10-24T03:10:55.791Z,16.10
2017-10-24T03:13:24.641Z,16.27
2017-10-24T03:15:53.490Z,16.08
2017-10-24T03:18:23.219Z,15.77
2017-10-24T03:20:52.159Z,16.95
2017-10-24T03:23:21.011Z,15.10
2017-10-24T03:25:49.868Z,14.95
2017-10-24T03:28:18.387Z,16.25
2017-10-24T03:30:47.992Z,15.60
2017-10-24T03:33:16.834Z,16.40
2017-10-24T03:35:45.699Z,15.25
2017-10-24T03:38:14.554Z,15.32
2017-10-24T03:40:43.416Z,16.48
2017-10-24T03:43:12.271Z,16.12
2017-10-24T03:45:41.963Z,14.25
2017-10-24T03:48:11.610Z,14.90
2017-10-24T03:50:40.476Z,13.18
2017-10-24T03:53:09.336Z,13.43
2017-10-24T03:55:38.200Z,15.85
2017-10-24T03:58:07.055Z,11.60
2017-10-24T04:00:35.919Z,13.98
2017-10-24T04:03:05.576Z,14.95
2017-10-24T04:05:34.283Z,14.70
2017-10-24T04:51:43.984Z,17.00
2017-10-24T04:54:14.228Z,16.10
2017-10-24T04:56:43.090Z,18.80
2017-10-24T04:59:13.415Z,18.58
2017-10-24T05:01:43.054Z,17.67
2017-10-24T05:04:13.239Z,19.85
2017-10-24T05:06:42.865Z,17.37
2017-10-24T05:09:11.735Z,20.58
2017-10-24T05:11:40.595Z,18.33
2017-10-24T05:14:10.923Z,18.85
2017-10-24T05:16:40.761Z,18.60
2017-10-24T05:19:09.329Z,20.08
2017-10-24T05:21:38.769Z,19.30
2017-10-24T05:24:08.398Z,20.83
2017-10-24T05:26:37.247Z,17.80
2017-10-24T05:29:06.013Z,18.50
2017-10-24T05:31:34.876Z,24.85
2017-10-24T05:34:03.736Z,25.12
2017-10-24T05:36:33.184Z,22.10
2017-10-24T05:39:02.806Z,33.33
2017-10-24T05:41:31.657Z,24.70
2017-10-24T05:44:00.826Z,27.42
2017-10-24T05:46:29.740Z,23.83
2017-10-24T05:48:59.377Z,22.92
2017-10-24T05:51:28.236Z,27.55
2017-10-24T05:53:57.847Z,27.00
2017-10-24T05:56:27.479Z,24.08
2017-10-24T05:58:56.372Z,23.95
2017-10-24T06:01:25.263Z,24.83
2017-10-24T06:03:54.127Z,27.87
2017-10-24T06:06:23.760Z,26.73
2017-10-24T06:08:59.682Z,26.02
2017-10-24T06:11:38.124Z,23.75
2017-10-24T06:17:59.772Z,27.52
2017-10-24T06:20:28.631Z,25.20
2017-10-24T06:22:57.757Z,26.60
2017-10-24T06:25:28.269Z,27.37
2017-10-24T06:27:57.904Z,27.35
2017-10-24T06:30:27.227Z,26.17
2017-10-24T06:32:56.090Z,26.20
2017-10-24T06:35:25.748Z,24.52
2017-10-24T06:37:54.165Z,25.00
2017-10-24T06:40:23.796Z,24.98
2017-10-24T06:42:53.460Z,25.50
2017-10-24T06:45:23.293Z,23.80
2017-10-24T06:47:52.926Z,25.02
2017-10-24T06:50:23.295Z,25.08
2017-10-24T06:52:53.287Z,24.23
2017-10-24T06:55:22.175Z,26.85
2017-10-24T06:57:52.081Z,25.77
2017-10-24T07:00:20.982Z,26.75
2017-10-24T07:02:50.338Z,24.30
2017-10-24T07:05:19.302Z,27.30
2017-10-24T07:07:47.975Z,25.83
2017-10-24T07:10:16.654Z,26.65
2017-10-24T07:12:46.953Z,23.25
2017-10-24T07:15:17.267Z,26.02
2017-10-24T07:17:45.975Z,26.67
2017-10-24T07:20:14.650Z,25.52
2017-10-24T07:22:45.328Z,26.15
2017-10-24T07:25:15.061Z,27.50
2017-10-24T07:27:44.724Z,26.95
2017-10-24T07:30:13.594Z,26.80
2017-10-24T07:32:43.234Z,23.83
2017-10-24T09:12:38.577Z,18.87
2017-10-24T09:18:05.151Z,18.42
2017-10-24T09:20:34.814Z,20.05
2017-10-24T09:23:05.625Z,18.70
2017-10-24T09:25:34.515Z,21.58
2017-10-24T09:28:08.982Z,21.33
2017-10-24T09:30:40.418Z,21.35
2017-10-24T09:33:09.838Z,21.00
2017-10-24T09:35:40.073Z,20.20
2017-10-24T09:38:08.970Z,19.60
2017-10-24T09:40:38.419Z,19.33
2017-10-24T09:43:07.096Z,21.55
2017-10-24T09:45:35.960Z,21.90
2017-10-24T09:48:04.802Z,20.25
2017-10-24T09:50:45.970Z,19.73
2017-10-24T09:53:14.880Z,18.25
2017-10-24T09:55:43.363Z,20.75
2017-10-24T09:58:11.553Z,19.02
2017-10-24T10:00:41.218Z,18.58
2017-10-24T10:03:10.446Z,19.83
2017-10-24T10:05:39.423Z,18.77
2017-10-24T10:08:08.312Z,19.80
2017-10-24T10:10:37.203Z,21.45
2017-10-24T10:13:07.699Z,18.83
2017-10-24T10:15:37.048Z,18.37
2017-10-24T10:18:07.003Z,16.58
2017-10-24T10:20:37.299Z,16.65
2017-10-24T10:23:06.048Z,18.40
2017-10-24T10:25:34.924Z,19.05
2017-10-24T10:28:04.556Z,15.48
2017-10-24T10:30:33.435Z,16.92
2017-10-24T10:33:03.062Z,15.52
2017-10-24T10:35:32.259Z,16.00
2017-10-24T10:38:01.146Z,14.30
2017-10-24T10:40:29.914Z,14.43
2017-10-24T10:42:59.570Z,13.02
2017-10-24T10:45:28.571Z,13.80
2017-10-24T10:47:57.801Z,13.45
2017-10-24T10:50:26.689Z,13.70
2017-10-24T10:52:55.562Z,13.80
2017-10-24T10:55:24.423Z,13.05
2017-10-24T10:57:53.275Z,9.60
2017-10-24T11:00:21.544Z,9.63
2017-10-24T11:02:52.291Z,10.18
2017-10-24T11:05:21.921Z,9.43
2017-10-24T11:07:51.603Z,9.45
2017-10-24T11:10:20.584Z,8.85
2017-10-24T11:12:50.684Z,9.63
2017-10-24T11:15:19.424Z,8.70
2017-10-24T11:17:49.879Z,8.38
2017-10-24T11:20:19.814Z,9.48
2017-10-24T11:22:49.701Z,11.30
2017-10-24T11:25:20.979Z,11.27
2017-10-24T11:27:50.323Z,10.25
2017-10-24T11:30:20.539Z,8.98
2017-10-24T11:32:49.964Z,9.38
2017-10-24T11:35:21.709Z,8.07
2017-10-24T11:37:51.063Z,7.97
2017-10-24T11:40:20.052Z,6.87
2017-10-24T11:42:49.746Z,7.82
2017-10-24T11:45:18.601Z,8.68
2017-10-24T11:47:48.198Z,8.20
2017-10-24T11:50:17.060Z,8.73
2017-10-24T11:52:45.750Z,8.30
2017-10-24T11:55:15.537Z,9.82
2017-10-24T11:57:44.389Z,8.15
2017-10-24T12:00:14.150Z,8.93
2017-10-24T12:02:51.724Z,8.77
2017-10-24T12:05:20.793Z,8.35
2017-10-24T12:07:50.023Z,8.73
2017-10-24T12:10:20.280Z,9.57
2017-10-24T12:12:49.487Z,9.73
2017-10-24T12:15:19.213Z,9.90
2017-10-24T12:17:48.104Z,8.35
2017-10-24T12:20:16.967Z,10.70
2017-10-24T12:22:46.679Z,8.68
2017-10-24T12:25:16.310Z,8.60
2017-10-24T12:27:45.179Z,9.52
2017-10-24T12:30:14.042Z,10.95
2017-10-24T12:32:42.440Z,10.35
2017-10-24T12:35:11.958Z,9.18
2017-10-24T12:40:36.458Z,8.82
2017-10-24T12:43:05.979Z,10.50
2017-10-24T12:45:34.373Z,8.27
2017-10-24T12:48:03.581Z,7.78
2017-10-24T12:53:14.702Z,7.93
2017-10-24T12:55:43.391Z,8.40
2017-10-24T12:58:17.029Z,7.50
2017-10-24T13:00:47.139Z,7.10
2017-10-24T13:03:15.820Z,7.32
2017-10-24T13:05:44.172Z,6.68
2017-10-24T13:08:16.302Z,8.45
2017-10-24T13:10:44.303Z,6.97
2017-10-24T13:13:12.981Z,7.45
2017-10-24T13:15:41.652Z,7.80
2017-10-24T13:18:11.833Z,7.10
2017-10-24T13:20:41.695Z,6.50
2017-10-24T13:23:11.172Z,7.75
2017-10-24T13:25:40.035Z,5.40
2017-10-24T13:28:09.412Z,6.10
2017-10-24T13:30:38.283Z,6.28
2017-10-24T13:33:07.164Z,5.25
2017-10-24T13:35:36.011Z,6.10
2017-10-24T13:38:06.360Z,5.55
2017-10-24T13:40:36.016Z,5.93
2017-10-24T13:43:05.083Z,6.00
2017-10-24T13:45:33.963Z,5.87
2017-10-24T13:48:04.710Z,5.15
2017-10-24T13:50:34.095Z,5.82
2017-10-24T13:53:03.381Z,5.40
2017-10-24T13:55:31.963Z,5.95
2017-10-24T13:58:01.706Z,5.62
2017-10-24T14:00:31.659Z,4.95
2017-10-24T14:03:04.271Z,5.50
2017-10-24T14:05:38.686Z,5.07
2017-10-24T14:08:13.863Z,5.62
2017-10-24T14:10:44.257Z,5.35
2017-10-24T14:13:13.779Z,6.55
2017-10-24T14:15:42.641Z,6.00
2017-10-24T14:18:13.176Z,5.80
2017-10-24T14:20:42.048Z,5.50
2017-10-24T14:23:10.903Z,5.70
2017-10-24T14:25:39.767Z,5.72
2017-10-24T14:28:08.615Z,5.78
2017-10-24T14:30:37.471Z,4.70
2017-10-24T14:33:06.329Z,4.35
2017-10-24T14:35:35.173Z,4.32
2017-10-24T14:38:04.011Z,4.30
2017-10-24T14:40:32.878Z,4.50
2017-10-24T14:43:01.807Z,4.32
2017-10-24T14:45:30.666Z,4.05
2017-10-24T14:48:00.215Z,4.35
2017-10-24T14:50:29.073Z,4.35
2017-10-24T14:52:58.692Z,4.25
2017-10-24T14:55:27.556Z,4.30
2017-10-24T14:57:56.406Z,4.85
2017-10-24T15:00:25.279Z,4.40
2017-10-24T15:02:54.141Z,4.12
2017-10-24T15:05:22.979Z,4.80
2017-10-24T15:07:51.819Z,4.15
2017-10-24T15:10:21.549Z,11.70
2017-10-24T15:12:50.434Z,5.25
2017-10-24T15:15:20.131Z,4.90
2017-10-24T15:17:48.984Z,4.57
2017-10-24T15:20:17.852Z,5.12
2017-10-24T15:22:46.688Z,4.85
2017-10-24T15:25:16.355Z,4.80
2017-10-24T15:27:45.204Z,6.12
2017-10-24T15:30:14.830Z,5.37
2017-10-24T15:32:44.560Z,4.80
2017-10-24T15:35:13.423Z,4.25
2017-10-24T15:37:43.031Z,5.78
2017-10-24T15:40:13.065Z,4.82
2017-10-24T15:42:41.909Z,4.50
2017-10-24T15:45:10.773Z,4.32
2017-10-24T15:47:39.609Z,4.78
2017-10-24T15:50:08.459Z,4.85
2017-10-24T15:52:38.641Z,4.57
2017-10-24T15:55:07.500Z,4.75
2017-10-24T15:57:36.352Z,4.65
2017-10-24T16:00:05.276Z,10.45
2017-10-24T16:02:35.103Z,7.40
2017-10-24T16:05:03.603Z,6.15
2017-10-24T16:07:32.516Z,6.75
2017-10-24T16:10:01.360Z,6.32
2017-10-24T16:12:30.221Z,5.12
2017-10-24T16:14:59.624Z,5.50
2017-10-24T16:17:28.467Z,6.10
2017-10-24T16:19:58.080Z,4.90
2017-10-24T16:22:27.703Z,5.57
2017-10-24T16:35:29.974Z,5.32
2017-10-24T16:37:58.826Z,5.50
2017-10-24T16:40:28.438Z,5.43
2017-10-24T16:42:58.962Z,6.97
2017-10-24T16:45:28.573Z,5.87
2017-10-24T16:47:57.430Z,6.10
2017-10-24T16:50:26.279Z,6.35
2017-10-24T16:52:55.139Z,6.20
2017-10-24T16:55:24.768Z,6.43
2017-10-24T16:57:53.628Z,5.90
2017-10-24T17:00:22.499Z,6.65
2017-10-24T17:02:51.346Z,6.05
2017-10-24T17:05:21.000Z,6.37
2017-10-24T17:07:49.851Z,5.82
2017-10-24T17:10:18.449Z,8.00
2017-10-24T17:12:52.364Z,6.37
2017-10-24T17:15:25.036Z,7.25
2017-10-24T17:17:53.947Z,6.57
2017-10-24T17:20:22.852Z,7.15
2017-10-24T17:22:51.972Z,7.32
2017-10-24T17:25:22.466Z,6.85
2017-10-24T17:27:51.347Z,7.75
2017-10-24T17:30:20.209Z,6.47
2017-10-24T17:32:49.055Z,7.78
2017-10-24T17:35:17.910Z,6.95
2017-10-24T17:37:46.799Z,9.07
2017-10-24T17:40:15.649Z,7.82
2017-10-24T17:42:46.132Z,9.18
2017-10-24T17:45:15.004Z,8.20
2017-10-24T17:47:43.867Z,8.55
2017-10-24T17:50:13.502Z,8.02
2017-10-24T17:52:42.656Z,7.50
2017-10-24T17:55:11.523Z,7.82
2017-10-24T17:57:40.374Z,7.70
2017-10-24T18:00:09.260Z,7.93
2017-10-24T18:02:39.226Z,7.10
2017-10-24T18:05:08.277Z,8.32
2017-10-24T18:07:37.144Z,8.70
2017-10-24T18:10:06.499Z,8.55
2017-10-24T18:12:35.370Z,8.57
2017-10-24T18:15:04.433Z,9.65
2017-10-24T18:17:34.732Z,8.27
2017-10-24T18:20:03.395Z,7.90
2017-10-24T18:22:32.248Z,8.63
2017-10-24T18:25:01.907Z,9.60
2017-10-24T18:27:31.416Z,10.75
2017-10-24T18:30:02.783Z,10.10
2017-10-24T18:32:31.646Z,9.45
2017-10-24T18:35:00.961Z,8.02
2017-10-24T18:37:29.814Z,8.40
2017-10-24T18:39:58.668Z,7.95
2017-10-24T18:42:27.528Z,8.05
2017-10-24T18:44:56.407Z,8.52
2017-10-24T18:47:25.100Z,8.57
2017-10-24T18:49:53.986Z,8.88
2017-10-24T18:52:23.142Z,8.48
2017-10-24T18:54:52.586Z,8.98
2017-10-24T18:57:21.777Z,9.10
2017-10-24T18:59:51.078Z,9.13
2017-10-24T19:02:19.767Z,10.10
2017-10-24T19:04:48.452Z,13.35
2017-10-24T19:07:17.980Z,9.60
2017-10-24T19:09:46.899Z,8.88
2017-10-24T19:12:15.972Z,8.65
2017-10-24T19:14:44.826Z,8.52
2017-10-24T19:17:13.687Z,7.45
2017-10-24T19:19:42.532Z,8.02
2017-10-24T19:22:12.359Z,7.20
2017-10-24T19:24:41.250Z,9.55
2017-10-24T19:27:11.316Z,8.55
2017-10-24T19:29:40.950Z,7.37
2017-10-24T19:32:09.822Z,7.68
2017-10-24T19:34:41.169Z,8.20
2017-10-24T19:37:12.682Z,6.37
2017-10-24T19:39:41.802Z,5.78
2017-10-24T19:42:11.252Z,6.50
2017-10-24T19:44:41.158Z,7.65
2017-10-24T19:47:10.308Z,8.05
2017-10-24T19:49:39.147Z,6.25
2017-10-24T19:52:08.006Z,13.57
2017-10-24T19:54:39.132Z,8.20
2017-10-24T19:57:10.195Z,6.20
2017-10-24T19:59:39.400Z,8.85
2017-10-24T20:02:08.238Z,7.10
2017-10-24T20:04:37.136Z,6.50
2017-10-24T20:07:06.596Z,5.85
2017-10-24T20:09:35.470Z,6.15
2017-10-24T20:12:04.591Z,5.12
2017-10-24T20:14:35.242Z,7.72
2017-10-24T20:21:34.919Z,6.85
2017-10-24T20:24:03.433Z,7.82
2017-10-24T20:26:33.965Z,5.80
2017-10-24T20:29:04.370Z,6.32
2017-10-24T20:31:33.222Z,6.43
2017-10-24T20:34:07.006Z,5.70
2017-10-24T20:36:35.893Z,5.70
2017-10-24T20:39:05.106Z,6.32
2017-10-24T20:41:34.270Z,6.10
2017-10-24T20:44:03.107Z,5.37
2017-10-24T20:46:31.980Z,5.90
2017-10-24T20:49:00.558Z,6.32
2017-10-24T20:51:30.957Z,5.10
2017-10-24T20:54:01.034Z,4.25
2017-10-24T20:56:30.641Z,4.72
2017-10-24T20:58:59.489Z,4.90
2017-10-24T21:01:29.911Z,15.93
2017-10-24T21:03:59.514Z,7.60
2017-10-24T21:06:28.363Z,5.03
2017-10-24T21:08:57.209Z,4.95
2017-10-24T21:11:26.839Z,5.32
2017-10-24T21:13:56.272Z,4.87
2017-10-24T21:16:25.123Z,5.32
2017-10-24T21:18:53.983Z,5.35
2017-10-24T21:21:25.498Z,4.10
2017-10-24T21:23:54.362Z,4.55
2017-10-24T21:26:23.223Z,4.68
2017-10-24T21:28:52.845Z,4.68
2017-10-24T21:31:22.476Z,5.25
2017-10-24T21:33:51.314Z,5.78
2017-10-24T21:36:20.167Z,4.47
2017-10-24T21:38:48.826Z,5.18
2017-10-24T21:41:18.469Z,5.22
2017-10-24T21:43:47.360Z,5.10
2017-10-24T21:46:16.260Z,6.03
2017-10-24T21:48:45.114Z,5.20
2017-10-24T21:51:14.722Z,5.55
2017-10-24T21:53:44.358Z,4.40
2017-10-24T21:56:13.226Z,4.62
2017-10-24T21:58:42.867Z,4.37
2017-10-24T22:01:12.498Z,4.40
2017-10-24T22:03:41.350Z,4.30
2017-10-24T22:06:10.209Z,4.43
2017-10-24T22:08:39.823Z,4.32
2017-10-24T22:11:08.659Z,4.10
2017-10-24T22:13:37.523Z,4.40
2017-10-24T22:16:06.379Z,4.85
2017-10-24T22:18:35.047Z,4.00
2017-10-24T22:21:03.913Z,5.05
2017-10-24T22:23:32.762Z,4.15
2017-10-24T22:26:02.193Z,4.00
2017-10-24T22:28:30.845Z,4.22
2017-10-24T22:31:00.486Z,12.55
2017-10-24T22:33:29.331Z,4.00
2017-10-24T22:35:58.167Z,4.70
2017-10-24T22:38:27.006Z,4.45
2017-10-24T22:40:55.850Z,4.20
2017-10-24T22:43:24.684Z,3.78
2017-10-24T22:45:53.523Z,4.10
2017-10-24T22:48:22.358Z,3.97
2017-10-24T22:50:51.212Z,4.45
2017-10-24T22:53:20.053Z,4.72
2017-10-24T22:55:48.894Z,4.60
2017-10-24T22:58:17.742Z,4.40
2017-10-24T23:00:46.590Z,4.70
2017-10-24T23:03:15.441Z,5.25
2017-10-24T23:05:45.050Z,6.30
2017-10-24T23:08:14.799Z,8.43
2017-10-24T23:10:43.689Z,11.23
2017-10-24T23:13:12.534Z,7.78
2017-10-24T23:15:41.375Z,7.43
2017-10-24T23:18:10.997Z,8.25
2017-10-24T23:20:40.630Z,8.30
2017-10-24T23:23:09.496Z,9.85
2017-10-24T23:25:38.378Z,9.05
2017-10-24T23:28:07.558Z,10.50
2017-10-24T23:30:36.431Z,11.00
2017-10-24T23:33:05.296Z,10.68
2017-10-24T23:35:34.919Z,11.10
2017-10-24T23:38:04.586Z,11.68
2017-10-24T23:40:33.448Z,11.65
2017-10-24T23:43:02.297Z,11.75
2017-10-24T23:45:31.155Z,12.65
2017-10-24T23:48:00.019Z,13.20
2017-10-24T23:50:28.883Z,14.30
2017-10-24T23:52:58.520Z,13.55
2017-10-24T23:55:27.417Z,15.55
2017-10-24T23:57:56.275Z,16.73
